createdAt,value
2019-02-02T00:00:34.815Z,61.53
2019-02-02T00:03:03.644Z,70.37
2019-02-02T00:05:32.437Z,65.20
2019-02-02T00:08:01.333Z,67.87
2019-02-02T00:10:30.114Z,69.97
2019-02-02T00:12:58.919Z,80.03
2019-02-02T00:15:27.795Z,77.43
2019-02-02T00:17:57.015Z,70.03
2019-02-02T00:20:25.855Z,62.17
2019-02-02T00:22:54.759Z,69.10
2019-02-02T00:25:23.511Z,68.10
2019-02-02T00:27:52.987Z,68.50
2019-02-02T00:30:21.786Z,97.00
2019-02-02T00:32:50.632Z,71.77
2019-02-02T00:35:19.680Z,72.80
2019-02-02T00:37:48.430Z,61.53
2019-02-02T00:40:18.942Z,66.93
2019-02-02T00:42:47.757Z,64.37
2019-02-02T00:45:21.351Z,64.60
2019-02-02T00:47:50.313Z,59.50
2019-02-02T00:50:19.484Z,68.97
2019-02-02T00:52:48.362Z,59.53
2019-02-02T00:55:20.526Z,72.07
2019-02-02T00:57:53.797Z,68.07
2019-02-02T01:00:21.490Z,60.87
2019-02-02T01:02:50.209Z,60.67
2019-02-02T01:05:20.935Z,68.47
2019-02-02T01:07:50.252Z,61.47
2019-02-02T01:10:33.599Z,68.23
2019-02-02T01:13:02.536Z,64.20
2019-02-02T01:15:31.502Z,69.53
2019-02-02T01:18:00.517Z,64.53
2019-02-02T01:20:30.402Z,61.23
2019-02-02T01:22:59.478Z,55.13
2019-02-02T01:25:28.365Z,64.60
2019-02-02T01:28:04.941Z,58.77
2019-02-02T01:30:27.823Z,50.50
2019-02-02T01:32:56.633Z,53.50
2019-02-02T01:35:25.558Z,53.67
2019-02-02T01:37:54.266Z,58.90
2019-02-02T01:40:25.070Z,52.07
2019-02-02T01:42:53.933Z,61.10
2019-02-02T01:45:25.101Z,63.27
2019-02-02T01:47:54.168Z,69.13
2019-02-02T01:50:25.538Z,61.53
2019-02-02T01:52:54.357Z,55.07
2019-02-02T01:55:23.270Z,64.60
2019-02-02T01:57:52.067Z,56.23
2019-02-02T02:00:32.345Z,58.87
2019-02-02T02:03:01.221Z,52.47
2019-02-02T02:05:30.089Z,61.23
2019-02-02T02:07:59.293Z,58.03
2019-02-02T02:10:28.098Z,67.97
2019-02-02T02:12:56.866Z,68.50
2019-02-02T02:15:25.670Z,73.60
2019-02-02T02:17:54.486Z,64.67
2019-02-02T02:20:24.336Z,65.73
2019-02-02T02:22:53.583Z,59.33
2019-02-02T02:25:22.447Z,62.53
2019-02-02T02:27:51.239Z,58.83
2019-02-02T02:30:22.059Z,71.43
2019-02-02T02:32:51.375Z,56.97
2019-02-02T02:35:20.257Z,78.00
2019-02-02T02:37:49.243Z,68.10
2019-02-02T02:40:22.698Z,68.70
2019-02-02T02:42:52.413Z,58.93
2019-02-02T02:45:21.650Z,57.27
2019-02-02T02:47:51.005Z,59.50
2019-02-02T02:50:21.634Z,67.27
2019-02-02T02:52:50.919Z,65.10
2019-02-02T02:55:20.967Z,54.47
2019-02-02T02:57:49.873Z,56.03
2019-02-02T03:00:24.107Z,58.43
2019-02-02T03:02:53.012Z,63.00
2019-02-02T03:05:22.235Z,65.57
2019-02-02T03:07:52.686Z,58.37
2019-02-02T03:10:24.065Z,47.13
2019-02-02T03:12:52.898Z,55.70
2019-02-02T03:15:22.224Z,52.57
2019-02-02T03:17:51.532Z,64.33
2019-02-02T03:20:20.675Z,53.13
2019-02-02T03:22:49.370Z,53.27
2019-02-02T03:25:25.942Z,46.20
2019-02-02T03:27:54.715Z,50.10
2019-02-02T03:30:23.591Z,53.00
2019-02-02T03:32:52.473Z,64.23
2019-02-02T03:35:25.218Z,59.87
2019-02-02T03:37:53.947Z,48.47
2019-02-02T03:40:24.298Z,47.00
2019-02-02T03:42:53.129Z,47.03
2019-02-02T03:45:23.603Z,49.00
2019-02-02T03:47:53.427Z,48.70
2019-02-02T03:50:22.441Z,43.60
2019-02-02T03:52:51.695Z,44.33
2019-02-02T03:55:20.514Z,41.90
2019-02-02T03:57:49.269Z,43.10
2019-02-02T04:00:20.285Z,44.83
2019-02-02T04:02:49.209Z,46.57
2019-02-02T04:05:20.089Z,41.70
2019-02-02T04:07:48.999Z,49.60
2019-02-02T04:10:17.889Z,51.27
2019-02-02T04:12:46.710Z,44.80
2019-02-02T04:15:17.595Z,41.70
2019-02-02T04:17:46.473Z,42.53
2019-02-02T04:20:17.554Z,41.00
2019-02-02T04:22:46.483Z,49.53
2019-02-02T04:25:15.885Z,45.43
2019-02-02T04:27:44.679Z,44.30
2019-02-02T04:30:19.144Z,48.00
2019-02-02T04:32:48.003Z,46.13
2019-02-02T04:35:16.809Z,43.03
2019-02-02T04:37:45.575Z,38.37
2019-02-02T04:40:15.753Z,36.70
2019-02-02T04:42:44.517Z,38.13
2019-02-02T04:45:15.724Z,37.23
2019-02-02T04:47:44.584Z,36.37
2019-02-02T04:50:20.783Z,29.23
2019-02-02T04:52:49.787Z,41.87
2019-02-02T04:55:19.754Z,34.30
2019-02-02T04:57:48.487Z,37.13
2019-02-02T05:00:22.647Z,36.23
2019-02-02T05:02:51.631Z,36.93
2019-02-02T05:05:20.399Z,36.43
2019-02-02T05:07:49.216Z,35.43
2019-02-02T05:10:20.155Z,36.10
2019-02-02T05:12:49.281Z,38.93
2019-02-02T05:15:18.209Z,51.70
2019-02-02T05:17:46.854Z,50.93
2019-02-02T05:20:17.407Z,56.57
2019-02-02T05:22:46.350Z,47.10
2019-02-02T05:25:15.224Z,42.03
2019-02-02T05:27:43.979Z,48.13
2019-02-02T05:30:18.298Z,51.77
2019-02-02T05:32:47.082Z,52.00
2019-02-02T05:35:15.796Z,64.23
2019-02-02T05:37:44.841Z,54.20
2019-02-02T05:40:18.887Z,43.67
2019-02-02T05:42:48.051Z,46.50
2019-02-02T05:45:19.061Z,34.53
2019-02-02T05:47:47.863Z,29.07
2019-02-02T05:50:23.816Z,32.50
2019-02-02T05:52:52.857Z,32.07
2019-02-02T05:55:23.253Z,27.10
2019-02-02T05:57:52.170Z,30.93
2019-02-02T06:00:30.991Z,34.73
2019-02-02T06:02:59.882Z,34.97
2019-02-02T06:05:28.629Z,38.70
2019-02-02T06:07:57.410Z,34.40
2019-02-02T06:10:26.234Z,38.67
2019-02-02T06:12:55.054Z,33.70
2019-02-02T06:15:24.165Z,34.03
2019-02-02T06:17:53.100Z,37.37
2019-02-02T06:20:21.717Z,31.57
2019-02-02T06:22:50.479Z,78.40
2019-02-02T06:25:19.398Z,91.47
2019-02-02T06:27:48.184Z,136.57
2019-02-02T06:30:21.626Z,158.10
2019-02-02T06:32:50.464Z,167.67
2019-02-02T06:35:19.948Z,159.83
2019-02-02T06:37:48.694Z,122.60
2019-02-02T06:40:19.138Z,97.03
2019-02-02T06:42:47.912Z,94.13
2019-02-02T06:45:22.613Z,103.10
2019-02-02T06:47:51.486Z,99.33
2019-02-02T06:50:20.347Z,100.27
2019-02-02T06:52:49.173Z,108.67
2019-02-02T06:55:18.413Z,303.90
2019-02-02T06:57:47.116Z,273.13
2019-02-02T07:00:21.778Z,153.27
2019-02-02T07:02:52.094Z,134.53
2019-02-02T07:05:20.995Z,98.13
2019-02-02T07:07:50.066Z,142.13
2019-02-02T07:10:21.438Z,87.63
2019-02-02T07:12:50.475Z,82.00
2019-02-02T07:15:21.750Z,158.67
2019-02-02T07:17:50.765Z,85.10
2019-02-02T07:20:19.463Z,97.40
2019-02-02T07:22:48.341Z,82.50
2019-02-02T07:25:17.293Z,57.97
2019-02-02T07:27:46.290Z,52.97
2019-02-02T07:30:28.248Z,57.70
2019-02-02T07:32:50.618Z,58.47
2019-02-02T07:35:19.760Z,54.00
2019-02-02T07:37:48.626Z,52.30
2019-02-02T07:40:19.041Z,46.00
2019-02-02T07:42:47.783Z,50.17
2019-02-02T07:45:25.407Z,41.50
2019-02-02T07:47:54.209Z,40.07
2019-02-02T07:50:23.181Z,50.87
2019-02-02T07:52:52.036Z,50.37
2019-02-02T07:55:23.819Z,59.47
2019-02-02T07:57:54.287Z,138.30
2019-02-02T08:00:40.949Z,171.00
2019-02-02T08:03:06.783Z,89.13
2019-02-02T08:05:36.962Z,75.83
2019-02-02T08:08:07.715Z,70.20
2019-02-02T08:10:36.822Z,75.23
2019-02-02T08:13:07.651Z,81.27
2019-02-02T08:15:36.608Z,77.43
2019-02-02T08:18:12.554Z,93.87
2019-02-02T08:20:37.027Z,108.43
2019-02-02T08:23:06.220Z,99.67
2019-02-02T08:25:35.423Z,97.33
2019-02-02T08:28:04.579Z,86.87
2019-02-02T08:30:35.771Z,68.07
2019-02-02T08:33:05.495Z,73.90
2019-02-02T08:35:34.719Z,59.50
2019-02-02T08:38:06.482Z,90.07
2019-02-02T08:40:36.853Z,74.63
2019-02-02T08:43:05.771Z,65.87
2019-02-02T08:45:34.478Z,68.13
2019-02-02T08:48:03.172Z,57.10
2019-02-02T08:50:34.398Z,55.40
2019-02-02T08:53:03.514Z,61.57
2019-02-02T08:55:32.948Z,89.30
2019-02-02T08:58:01.761Z,100.50
2019-02-02T09:00:30.688Z,76.93
2019-02-02T09:02:59.452Z,75.90
2019-02-02T09:05:28.590Z,70.47
2019-02-02T09:07:57.321Z,47.40
2019-02-02T09:10:28.014Z,55.77
2019-02-02T09:12:57.732Z,72.70
2019-02-02T09:15:27.246Z,46.93
2019-02-02T09:17:56.091Z,47.57
2019-02-02T09:20:25.096Z,57.47
2019-02-02T09:23:03.931Z,56.23
2019-02-02T09:25:24.458Z,61.03
2019-02-02T09:27:53.200Z,59.57
2019-02-02T09:30:27.552Z,68.77
2019-02-02T09:32:56.417Z,64.67
2019-02-02T09:35:25.288Z,64.17
2019-02-02T09:37:54.173Z,91.23
2019-02-02T09:40:25.512Z,61.67
2019-02-02T09:42:53.466Z,40.80
2019-02-02T09:45:23.599Z,36.77
2019-02-02T09:47:52.697Z,40.70
2019-02-02T09:50:28.024Z,40.33
2019-02-02T09:52:56.912Z,35.93
2019-02-02T09:55:26.665Z,37.23
2019-02-02T09:57:58.237Z,34.53
2019-02-02T10:00:28.999Z,30.57
2019-02-02T10:02:58.237Z,125.60
2019-02-02T10:05:27.080Z,35.30
2019-02-02T10:07:55.936Z,40.73
2019-02-02T10:10:26.834Z,85.07
2019-02-02T10:12:55.767Z,74.20
2019-02-02T10:15:24.607Z,81.17
2019-02-02T10:17:53.436Z,129.15
2019-02-02T10:20:25.098Z,170.72
2019-02-02T10:22:55.973Z,54.40
2019-02-02T10:25:32.203Z,56.13
2019-02-02T10:28:01.713Z,53.92
2019-02-02T10:30:38.973Z,106.05
2019-02-02T10:33:08.117Z,43.33
2019-02-02T10:35:37.016Z,42.55
2019-02-02T10:38:06.365Z,52.62
2019-02-02T10:40:35.250Z,44.75
2019-02-02T10:43:04.128Z,32.15
2019-02-02T10:45:32.940Z,64.85
2019-02-02T10:48:01.687Z,34.88
2019-02-02T10:50:30.531Z,61.45
2019-02-02T10:52:59.498Z,54.18
2019-02-02T10:55:28.659Z,24.05
2019-02-02T10:57:57.737Z,23.95
2019-02-02T11:00:38.163Z,20.95
2019-02-02T11:03:07.051Z,22.70
2019-02-02T11:05:36.037Z,21.87
2019-02-02T11:08:05.908Z,27.98
2019-02-02T11:10:35.737Z,27.40
2019-02-02T11:13:06.087Z,15.45
2019-02-02T11:15:34.977Z,19.40
2019-02-02T11:18:03.969Z,26.47
2019-02-02T11:20:34.818Z,27.57
2019-02-02T11:23:03.784Z,22.20
2019-02-02T11:25:32.585Z,17.90
2019-02-02T11:28:01.587Z,20.73
2019-02-02T11:30:31.179Z,18.10
2019-02-02T11:32:59.984Z,23.90
2019-02-02T11:35:28.748Z,16.93
2019-02-02T11:37:57.720Z,12.17
2019-02-02T11:40:31.399Z,11.00
2019-02-02T11:43:00.639Z,14.57
2019-02-02T11:45:29.602Z,8.10
2019-02-02T11:47:58.462Z,12.33
2019-02-02T11:50:27.224Z,7.97
2019-02-02T11:52:56.066Z,10.87
2019-02-02T11:55:31.175Z,11.33
2019-02-02T11:58:00.164Z,9.63
2019-02-02T12:00:40.452Z,8.10
2019-02-02T12:03:09.777Z,9.83
2019-02-02T12:05:38.772Z,6.57
2019-02-02T12:08:07.640Z,5.13
2019-02-02T12:10:37.204Z,6.27
2019-02-02T12:13:06.268Z,8.50
2019-02-02T12:15:35.530Z,10.33
2019-02-02T12:18:06.404Z,12.13
2019-02-02T12:20:35.357Z,12.70
2019-02-02T12:23:04.438Z,16.83
2019-02-02T12:25:33.566Z,14.57
2019-02-02T12:28:02.364Z,17.10
2019-02-02T12:30:33.102Z,12.73
2019-02-02T12:33:03.400Z,12.20
2019-02-02T12:35:32.602Z,10.17
2019-02-02T12:38:01.477Z,41.97
2019-02-02T12:40:30.363Z,16.83
2019-02-02T12:42:59.224Z,34.90
2019-02-02T12:45:36.688Z,31.70
2019-02-02T12:48:05.920Z,18.33
2019-02-02T12:50:34.832Z,9.70
2019-02-02T12:53:03.724Z,12.53
2019-02-02T12:55:32.641Z,19.97
2019-02-02T12:58:01.427Z,20.93
2019-02-02T13:00:30.207Z,24.87
2019-02-02T13:02:58.999Z,12.17
2019-02-02T13:05:28.503Z,18.67
2019-02-02T13:07:57.377Z,46.73
2019-02-02T13:10:28.342Z,25.27
2019-02-02T13:12:57.307Z,26.30
2019-02-02T13:15:26.138Z,19.33
2019-02-02T13:17:54.865Z,24.57
2019-02-02T13:20:23.740Z,26.33
2019-02-02T13:22:52.535Z,25.67
2019-02-02T13:25:22.829Z,22.23
2019-02-02T13:27:51.779Z,20.97
2019-02-02T13:30:25.822Z,22.73
2019-02-02T13:32:54.646Z,34.70
2019-02-02T13:35:24.399Z,26.97
2019-02-02T13:37:53.419Z,50.07
2019-02-02T13:43:19.833Z,22.10
2019-02-02T13:45:48.749Z,19.80
2019-02-02T13:48:17.664Z,42.13
2019-02-02T13:50:46.441Z,29.77
2019-02-02T13:53:15.363Z,26.47
2019-02-02T13:55:44.309Z,21.20
2019-02-02T13:58:13.095Z,24.40
2019-02-02T14:00:41.872Z,32.53
2019-02-02T14:03:10.941Z,29.90
2019-02-02T14:05:40.218Z,31.20
2019-02-02T14:08:09.073Z,24.17
2019-02-02T14:10:37.922Z,27.60
2019-02-02T14:13:07.472Z,23.27
2019-02-02T14:15:39.151Z,22.27
2019-02-02T14:18:06.604Z,24.93
2019-02-02T14:20:35.436Z,26.40
2019-02-02T14:23:04.298Z,27.00
2019-02-02T14:25:33.076Z,25.87
2019-02-02T14:28:01.913Z,27.90
2019-02-02T14:30:30.970Z,30.30
2019-02-02T14:32:59.911Z,31.77
2019-02-02T14:35:29.520Z,48.27
2019-02-02T14:37:58.365Z,52.43
2019-02-02T14:40:27.286Z,40.00
2019-02-02T14:42:56.136Z,87.27
2019-02-02T14:45:27.526Z,61.03
2019-02-02T14:47:56.491Z,52.07
2019-02-02T14:50:25.323Z,27.37
2019-02-02T14:52:54.836Z,12.27
2019-02-02T14:55:25.594Z,27.87
2019-02-02T14:57:54.561Z,20.17
2019-02-02T15:00:25.482Z,30.90
2019-02-02T15:02:54.207Z,26.13
2019-02-02T15:05:23.398Z,20.97
2019-02-02T15:07:52.353Z,31.63
2019-02-02T15:10:22.161Z,35.03
2019-02-02T15:12:51.181Z,56.33
2019-02-02T15:15:20.386Z,24.77
2019-02-02T15:17:49.241Z,35.73
2019-02-02T15:20:23.171Z,23.67
2019-02-02T15:22:52.120Z,17.80
2019-02-02T15:25:21.625Z,24.20
2019-02-02T15:27:50.552Z,13.57
2019-02-02T15:30:27.680Z,16.63
2019-02-02T15:32:56.522Z,22.73
2019-02-02T15:35:25.349Z,13.10
2019-02-02T15:37:54.149Z,18.20
2019-02-02T15:40:23.066Z,19.67
2019-02-02T15:42:51.818Z,25.10
2019-02-02T15:45:24.126Z,28.53
2019-02-02T15:47:53.147Z,29.80
2019-02-02T15:50:22.111Z,17.70
2019-02-02T15:52:50.991Z,14.03
2019-02-02T15:55:21.591Z,23.13
2019-02-02T15:57:50.338Z,21.43
2019-02-02T16:00:22.076Z,16.63
2019-02-02T16:02:50.997Z,18.83
2019-02-02T16:05:21.309Z,24.53
2019-02-02T16:07:51.115Z,20.00
2019-02-02T16:10:28.495Z,20.60
2019-02-02T16:12:57.465Z,24.87
2019-02-02T16:15:26.336Z,22.70
2019-02-02T16:17:55.207Z,24.60
2019-02-02T16:20:35.749Z,27.00
2019-02-02T16:23:05.249Z,22.03
2019-02-02T16:25:34.150Z,17.13
2019-02-02T16:28:02.899Z,24.37
2019-02-02T16:30:32.304Z,16.57
2019-02-02T16:33:01.935Z,27.00
2019-02-02T16:35:30.809Z,22.70
2019-02-02T16:37:59.808Z,34.03
2019-02-02T16:40:30.083Z,34.47
2019-02-02T16:42:58.976Z,36.27
2019-02-02T16:45:32.663Z,29.17
2019-02-02T16:48:01.650Z,23.03
2019-02-02T16:50:30.576Z,21.37
2019-02-02T16:52:59.353Z,29.17
2019-02-02T16:55:28.306Z,23.87
2019-02-02T16:57:57.524Z,25.43
2019-02-02T17:00:28.792Z,33.13
2019-02-02T17:02:57.573Z,28.27
2019-02-02T17:05:26.555Z,30.60
2019-02-02T17:07:55.498Z,31.93
2019-02-02T17:10:26.465Z,54.90
2019-02-02T17:12:55.445Z,83.40
2019-02-02T17:15:24.335Z,25.97
2019-02-02T17:17:53.151Z,29.37
2019-02-02T17:20:24.591Z,36.67
2019-02-02T17:22:53.608Z,38.10
2019-02-02T17:25:23.115Z,43.50
2019-02-02T17:27:52.242Z,49.63
2019-02-02T17:30:23.577Z,49.03
2019-02-02T17:32:53.547Z,57.03
2019-02-02T17:35:22.449Z,62.20
2019-02-02T17:37:51.358Z,63.57
2019-02-02T17:40:28.693Z,63.53
2019-02-02T17:42:57.548Z,60.03
2019-02-02T17:45:26.373Z,79.00
2019-02-02T17:47:55.153Z,83.13
2019-02-02T17:50:26.990Z,83.67
2019-02-02T17:52:55.788Z,87.67
2019-02-02T17:55:24.586Z,87.40
2019-02-02T17:57:53.484Z,87.87
2019-02-02T18:00:26.720Z,84.57
2019-02-02T18:02:55.507Z,82.93
2019-02-02T18:05:24.232Z,84.77
2019-02-02T18:07:53.126Z,88.77
2019-02-02T18:10:21.961Z,133.57
2019-02-02T18:12:50.816Z,109.53
2019-02-02T18:15:19.442Z,89.27
2019-02-02T18:17:48.197Z,83.93
2019-02-02T18:20:17.438Z,84.23
2019-02-02T18:22:46.279Z,87.53
2019-02-02T18:25:16.657Z,92.10
2019-02-02T18:27:46.003Z,101.23
2019-02-02T18:30:17.802Z,116.77
2019-02-02T18:32:47.009Z,104.97
2019-02-02T18:35:16.857Z,92.83
2019-02-02T18:37:45.689Z,96.43
2019-02-02T18:40:24.582Z,130.63
2019-02-02T18:42:54.103Z,99.60
2019-02-02T18:45:27.891Z,96.00
2019-02-02T18:47:56.809Z,95.03
2019-02-02T18:50:25.651Z,103.40
2019-02-02T18:52:59.500Z,117.07
2019-02-02T18:55:36.952Z,115.73
2019-02-02T18:58:06.325Z,142.07
2019-02-02T19:00:35.175Z,152.17
2019-02-02T19:03:05.042Z,102.90
2019-02-02T19:05:33.990Z,125.47
2019-02-02T19:08:02.839Z,116.13
2019-02-02T19:10:34.695Z,101.30
2019-02-02T19:13:03.574Z,102.33
2019-02-02T19:15:32.481Z,144.20
2019-02-02T19:18:03.443Z,185.50
2019-02-02T19:20:31.908Z,172.63
2019-02-02T19:23:00.705Z,174.93
2019-02-02T19:25:29.496Z,127.17
2019-02-02T19:27:58.307Z,139.40
2019-02-02T19:30:32.315Z,123.07
2019-02-02T19:33:01.259Z,119.67
2019-02-02T19:35:30.121Z,105.50
2019-02-02T19:37:59.509Z,101.23
2019-02-02T19:40:28.274Z,91.00
2019-02-02T19:42:57.129Z,99.40
2019-02-02T19:45:28.030Z,110.30
2019-02-02T19:47:57.442Z,113.30
2019-02-02T19:50:28.131Z,112.13
2019-02-02T19:52:57.524Z,117.73
2019-02-02T19:55:26.807Z,121.37
2019-02-02T19:57:55.715Z,123.83
2019-02-02T20:00:29.743Z,118.27
2019-02-02T20:02:58.497Z,122.90
2019-02-02T20:05:28.980Z,127.83
2019-02-02T20:07:58.041Z,120.37
2019-02-02T20:10:26.943Z,121.80
2019-02-02T20:12:55.845Z,125.77
2019-02-02T20:15:26.628Z,136.10
2019-02-02T20:18:09.916Z,132.30
2019-02-02T20:20:36.651Z,154.53
2019-02-02T20:23:05.649Z,181.53
2019-02-02T20:25:34.551Z,195.00
2019-02-02T20:28:03.550Z,198.20
2019-02-02T20:30:33.143Z,240.63
2019-02-02T20:33:03.202Z,222.07
2019-02-02T20:35:40.897Z,188.47
2019-02-02T20:38:02.513Z,170.33
2019-02-02T20:40:31.454Z,175.60
2019-02-02T20:43:00.260Z,153.07
2019-02-02T20:45:35.116Z,130.60
2019-02-02T20:48:04.043Z,129.10
2019-02-02T20:50:32.791Z,128.53
2019-02-02T20:53:01.553Z,135.87
2019-02-02T20:55:33.141Z,133.83
2019-02-02T20:58:02.023Z,143.70
2019-02-02T21:00:32.079Z,156.57
2019-02-02T21:03:00.900Z,165.00
2019-02-02T21:05:31.715Z,147.90
2019-02-02T21:08:00.172Z,154.70
2019-02-02T21:10:29.057Z,139.93
2019-02-02T21:12:58.040Z,150.53
2019-02-02T21:15:27.075Z,138.83
2019-02-02T21:17:56.048Z,136.90
2019-02-02T21:20:27.442Z,145.53
2019-02-02T21:22:56.614Z,139.33
2019-02-02T21:25:26.006Z,131.80
2019-02-02T21:27:54.916Z,126.33
2019-02-02T21:30:34.544Z,117.87
2019-02-02T21:33:05.004Z,162.67
2019-02-02T21:35:33.928Z,130.57
2019-02-02T21:38:02.975Z,133.70
2019-02-02T21:40:33.574Z,152.47
2019-02-02T21:43:02.525Z,125.20
2019-02-02T21:45:31.568Z,131.83
2019-02-02T21:48:00.334Z,129.97
2019-02-02T21:50:29.152Z,133.93
2019-02-02T21:52:58.042Z,133.03
2019-02-02T21:55:29.294Z,115.53
2019-02-02T21:57:58.225Z,110.53
2019-02-02T22:00:36.177Z,119.60
2019-02-02T22:03:06.906Z,105.77
2019-02-02T22:05:35.707Z,98.17
2019-02-02T22:08:05.825Z,110.73
2019-02-02T22:10:34.729Z,105.43
2019-02-02T22:13:03.608Z,120.10
2019-02-02T22:15:32.599Z,114.50
2019-02-02T22:18:01.313Z,105.87
2019-02-02T22:20:30.181Z,97.47
2019-02-02T22:22:59.067Z,110.03
2019-02-02T22:25:32.997Z,104.00
2019-02-02T22:28:01.954Z,102.13
2019-02-02T22:30:33.800Z,99.83
2019-02-02T22:33:02.751Z,96.03
2019-02-02T22:35:31.610Z,100.57
2019-02-02T22:38:00.763Z,105.63
2019-02-02T22:40:29.586Z,103.97
2019-02-02T22:42:58.552Z,99.70
2019-02-02T22:45:27.580Z,104.80
2019-02-02T22:47:56.497Z,101.37
2019-02-02T22:50:26.931Z,98.23
2019-02-02T22:52:56.405Z,106.30
2019-02-02T22:55:25.751Z,104.07
2019-02-02T22:57:54.976Z,107.23
2019-02-02T23:00:43.486Z,105.50
2019-02-02T23:03:15.341Z,104.13
2019-02-02T23:06:06.876Z,91.27
2019-02-02T23:08:38.728Z,103.67
2019-02-02T23:11:27.059Z,105.43
2019-02-02T23:14:04.255Z,119.87
2019-02-02T23:16:33.678Z,110.10
2019-02-02T23:19:02.587Z,178.67
2019-02-02T23:21:31.761Z,140.97
2019-02-02T23:24:00.662Z,121.00
2019-02-02T23:26:29.615Z,106.87
2019-02-02T23:28:58.492Z,102.17
2019-02-02T23:31:27.514Z,91.30
2019-02-02T23:33:56.380Z,100.27
2019-02-02T23:36:25.089Z,91.93
2019-02-02T23:38:53.981Z,93.77
2019-02-02T23:41:22.854Z,91.73
2019-02-02T23:43:51.591Z,101.50
2019-02-02T23:46:20.537Z,90.90
2019-02-02T23:48:49.341Z,89.47
2019-02-02T23:51:18.340Z,95.97
2019-02-02T23:53:47.254Z,91.53
2019-02-02T23:56:16.205Z,95.23
2019-02-02T23:58:45.452Z,91.90
